createdAt,value
2023-01-13T00:01:10.405Z,14.60
2023-01-13T00:04:13.484Z,24.63
2023-01-13T00:07:16.280Z,25.45
2023-01-13T00:10:19.518Z,18.83
2023-01-13T00:13:26.859Z,18.90
2023-01-13T00:16:30.055Z,11.60
2023-01-13T00:19:33.073Z,17.85
2023-01-13T00:22:36.833Z,14.65
2023-01-13T00:25:39.630Z,13.90
2023-01-13T00:28:42.966Z,14.32
2023-01-13T00:31:45.818Z,16.63
2023-01-13T00:34:48.945Z,11.45
2023-01-13T00:37:51.838Z,13.95
2023-01-13T00:41:02.084Z,14.23
2023-01-13T00:44:04.867Z,13.10
2023-01-13T00:47:07.939Z,14.77
2023-01-13T00:50:11.333Z,12.15
2023-01-13T00:53:15.135Z,13.00
2023-01-13T00:56:30.514Z,11.63
2023-01-13T00:59:42.263Z,14.00
2023-01-13T01:02:45.140Z,13.17
2023-01-13T01:05:48.515Z,10.90
2023-01-13T01:08:52.482Z,11.07
2023-01-13T01:11:55.632Z,13.40
2023-01-13T01:14:58.480Z,10.68
2023-01-13T01:18:01.701Z,13.57
2023-01-13T01:21:05.622Z,11.90
2023-01-13T01:24:10.116Z,11.63
2023-01-13T01:27:12.814Z,12.40
2023-01-13T01:30:16.722Z,13.77
2023-01-13T01:33:19.567Z,12.40
2023-01-13T01:36:26.521Z,12.20
2023-01-13T01:39:29.332Z,11.48
2023-01-13T01:42:51.076Z,10.90
2023-01-13T01:45:53.921Z,12.02
2023-01-13T01:49:05.776Z,11.13
2023-01-13T01:52:33.985Z,11.88
2023-01-13T01:55:38.590Z,12.32
2023-01-13T01:58:47.210Z,13.00
2023-01-13T02:01:50.522Z,12.05
2023-01-13T02:04:56.288Z,13.93
2023-01-13T02:08:00.984Z,13.02
2023-01-13T02:11:04.285Z,10.77
2023-01-13T02:14:07.093Z,11.48
2023-01-13T02:17:22.500Z,13.05
2023-01-13T02:21:06.822Z,13.03
2023-01-13T02:24:55.910Z,13.13
2023-01-13T02:29:01.843Z,12.37
2023-01-13T02:32:33.479Z,12.82
2023-01-13T02:35:36.296Z,13.93
2023-01-13T02:39:04.585Z,13.80
2023-01-13T02:42:33.062Z,14.10
2023-01-13T02:45:49.339Z,16.25
2023-01-13T02:48:56.452Z,16.87
2023-01-13T02:52:07.397Z,17.60
2023-01-13T02:55:17.320Z,17.03
2023-01-13T02:58:25.498Z,15.07
2023-01-13T03:01:28.418Z,15.30
2023-01-13T03:04:52.843Z,13.50
2023-01-13T03:08:20.160Z,16.40
2023-01-13T03:11:26.489Z,16.73
2023-01-13T03:15:04.594Z,14.40
2023-01-13T03:18:19.695Z,16.40
2023-01-13T03:21:36.166Z,16.35
2023-01-13T03:24:42.492Z,20.70
2023-01-13T03:28:04.101Z,14.00
2023-01-13T03:31:14.310Z,15.70
2023-01-13T03:34:22.484Z,20.12
2023-01-13T03:37:34.761Z,17.83
2023-01-13T03:40:54.193Z,17.10
2023-01-13T03:44:22.892Z,14.57
2023-01-13T03:47:48.815Z,17.52
2023-01-13T03:50:54.044Z,18.90
2023-01-13T03:54:00.991Z,15.30
2023-01-13T03:57:09.781Z,17.80
2023-01-13T04:00:14.741Z,16.40
2023-01-13T04:03:32.370Z,19.83
2023-01-13T04:07:06.309Z,23.45
2023-01-13T04:10:11.995Z,20.70
2023-01-13T04:13:22.413Z,21.07
2023-01-13T04:16:25.780Z,27.27
2023-01-13T04:19:28.637Z,20.50
2023-01-13T04:22:31.675Z,21.02
2023-01-13T04:25:34.647Z,23.10
2023-01-13T04:28:37.733Z,23.30
2023-01-13T04:31:41.126Z,29.60
2023-01-13T04:34:44.139Z,23.45
2023-01-13T04:37:47.032Z,22.30
2023-01-13T04:40:50.073Z,17.33
2023-01-13T04:43:52.945Z,18.43
2023-01-13T04:46:56.489Z,18.37
2023-01-13T04:49:59.465Z,19.30
2023-01-13T04:53:02.725Z,21.02
2023-01-13T04:56:05.722Z,20.02
2023-01-13T04:59:13.214Z,19.70
2023-01-13T05:02:20.067Z,20.90
2023-01-13T05:05:23.135Z,17.95
2023-01-13T05:08:25.960Z,15.07
2023-01-13T05:11:47.622Z,19.80
2023-01-13T05:15:08.790Z,22.70
2023-01-13T05:18:12.851Z,20.37
2023-01-13T05:21:33.996Z,29.65
2023-01-13T05:24:55.887Z,24.80
2023-01-13T05:28:00.501Z,28.15
2023-01-13T05:31:03.496Z,65.27
2023-01-13T05:34:06.557Z,58.80
2023-01-13T05:37:11.459Z,34.90
2023-01-13T05:40:35.202Z,36.17
2023-01-13T05:43:38.312Z,33.50
2023-01-13T05:46:42.129Z,26.73
2023-01-13T05:49:45.237Z,30.85
2023-01-13T05:52:48.288Z,31.83
2023-01-13T05:55:51.766Z,29.05
2023-01-13T05:58:54.429Z,25.92
2023-01-13T06:01:57.476Z,26.30
2023-01-13T06:05:00.616Z,21.62
2023-01-13T06:08:05.341Z,23.42
2023-01-13T06:11:11.203Z,23.48
2023-01-13T06:14:13.921Z,29.35
2023-01-13T06:17:17.025Z,28.97
2023-01-13T06:20:20.686Z,28.95
2023-01-13T06:23:24.443Z,30.12
2023-01-13T06:26:29.736Z,34.70
2023-01-13T06:29:32.875Z,31.67
2023-01-13T06:32:42.646Z,28.73
2023-01-13T06:35:53.036Z,31.48
2023-01-13T06:39:01.999Z,26.30
2023-01-13T06:42:23.539Z,27.58
2023-01-13T06:45:29.323Z,23.05
2023-01-13T06:48:35.333Z,27.07
2023-01-13T06:51:38.410Z,26.67
2023-01-13T06:54:41.512Z,25.20
2023-01-13T06:57:48.510Z,27.62
2023-01-13T07:00:51.898Z,33.08
2023-01-13T07:03:54.579Z,35.73
2023-01-13T07:06:57.803Z,43.10
2023-01-13T07:10:00.820Z,36.88
2023-01-13T07:13:24.392Z,31.60
2023-01-13T07:16:28.349Z,25.30
2023-01-13T07:19:31.510Z,15.90
2023-01-13T07:22:34.582Z,13.55
2023-01-13T07:25:37.641Z,19.20
2023-01-13T07:28:41.185Z,18.95
2023-01-13T07:31:44.479Z,26.85
2023-01-13T07:34:47.143Z,26.83
2023-01-13T07:37:50.321Z,22.85
2023-01-13T07:40:53.592Z,24.25
2023-01-13T07:43:56.704Z,26.48
2023-01-13T07:46:59.337Z,24.50
2023-01-13T07:50:02.561Z,22.93
2023-01-13T07:53:05.562Z,19.15
2023-01-13T07:56:08.985Z,20.02
2023-01-13T07:59:11.682Z,20.77
2023-01-13T08:02:14.919Z,22.55
2023-01-13T08:05:18.381Z,22.50
2023-01-13T08:08:21.232Z,21.20
2023-01-13T08:11:24.321Z,46.88
2023-01-13T08:14:27.191Z,34.20
2023-01-13T08:17:30.357Z,35.37
2023-01-13T08:20:33.208Z,30.30
2023-01-13T08:23:36.474Z,30.17
2023-01-13T08:26:39.164Z,35.35
2023-01-13T08:29:42.211Z,43.38
2023-01-13T08:32:45.971Z,30.43
2023-01-13T08:35:51.487Z,33.80
2023-01-13T08:38:54.676Z,27.17
2023-01-13T08:41:58.903Z,38.00
2023-01-13T08:45:01.664Z,18.70
2023-01-13T08:48:05.816Z,12.90
2023-01-13T08:51:09.714Z,14.20
2023-01-13T08:54:13.091Z,9.77
2023-01-13T08:57:16.235Z,9.55
2023-01-13T09:00:20.119Z,9.63
2023-01-13T09:03:23.081Z,12.00
2023-01-13T09:06:26.216Z,6.67
2023-01-13T09:09:28.992Z,13.70
2023-01-13T09:12:50.335Z,6.55
2023-01-13T09:15:56.634Z,7.78
2023-01-13T09:18:59.852Z,14.70
2023-01-13T09:22:03.135Z,10.13
2023-01-13T09:25:06.716Z,12.43
2023-01-13T09:28:09.592Z,7.53
2023-01-13T09:31:12.819Z,11.65
2023-01-13T09:34:39.056Z,15.83
2023-01-13T09:37:42.197Z,29.17
2023-01-13T09:40:49.107Z,17.65
2023-01-13T09:43:58.213Z,6.78
2023-01-13T09:47:04.662Z,9.00
2023-01-13T09:50:34.359Z,10.27
2023-01-13T09:53:57.805Z,10.53
2023-01-13T09:57:01.573Z,13.05
2023-01-13T10:00:10.991Z,7.90
2023-01-13T10:03:27.308Z,6.10
2023-01-13T10:06:39.111Z,8.70
2023-01-13T10:09:49.592Z,8.23
2023-01-13T10:13:11.163Z,11.75
2023-01-13T10:16:59.018Z,7.95
2023-01-13T10:20:08.483Z,10.43
2023-01-13T10:23:39.290Z,8.17
2023-01-13T10:27:05.714Z,7.17
2023-01-13T10:30:36.211Z,9.63
2023-01-13T10:33:39.364Z,4.60
2023-01-13T10:37:16.261Z,5.05
2023-01-13T10:40:19.505Z,5.57
2023-01-13T10:43:22.773Z,6.67
2023-01-13T10:46:26.367Z,5.03
2023-01-13T10:49:36.445Z,10.00
2023-01-13T10:52:43.677Z,9.25
2023-01-13T10:56:02.495Z,11.67
2023-01-13T10:59:27.815Z,8.83
2023-01-13T11:02:32.110Z,7.90
2023-01-13T11:05:35.270Z,6.12
2023-01-13T11:08:47.160Z,5.62
2023-01-13T11:11:56.309Z,10.50
2023-01-13T11:15:02.389Z,8.43
2023-01-13T11:18:22.812Z,6.72
2023-01-13T11:21:50.921Z,17.83
2023-01-13T11:25:03.068Z,94.43
2023-01-13T11:28:23.800Z,148.17
2023-01-13T11:31:26.888Z,19.57
2023-01-13T11:34:41.691Z,14.98
2023-01-13T11:37:53.098Z,17.40
2023-01-13T11:41:05.742Z,16.10
2023-01-13T11:44:33.337Z,20.10
2023-01-13T11:47:37.272Z,13.77
2023-01-13T11:50:54.106Z,12.77
2023-01-13T11:54:11.713Z,8.68
2023-01-13T11:57:33.206Z,9.45
2023-01-13T12:00:50.959Z,10.80
2023-01-13T12:04:17.139Z,15.33
2023-01-13T12:07:41.261Z,8.30
2023-01-13T12:11:06.175Z,15.02
2023-01-13T12:14:47.351Z,11.80
2023-01-13T12:18:09.250Z,11.07
2023-01-13T12:21:32.288Z,14.30
2023-01-13T12:24:56.935Z,11.05
2023-01-13T12:28:05.154Z,7.60
2023-01-13T12:31:09.745Z,32.58
2023-01-13T12:34:37.608Z,19.00
2023-01-13T12:37:57.859Z,14.90
2023-01-13T12:41:07.965Z,15.50
2023-01-13T12:44:17.646Z,84.93
2023-01-13T12:47:41.512Z,28.73
2023-01-13T12:50:44.976Z,16.97
2023-01-13T12:53:48.066Z,39.13
2023-01-13T12:56:51.302Z,17.20
2023-01-13T12:59:59.840Z,19.37
2023-01-13T13:03:16.658Z,25.85
2023-01-13T13:06:29.296Z,15.77
2023-01-13T13:09:55.565Z,22.57
2023-01-13T13:13:19.331Z,34.08
2023-01-13T13:16:29.558Z,15.00
2023-01-13T13:19:32.379Z,22.27
2023-01-13T13:22:35.404Z,18.63
2023-01-13T13:26:16.785Z,18.93
2023-01-13T13:29:47.431Z,9.70
2023-01-13T13:33:01.774Z,19.70
2023-01-13T13:36:22.021Z,13.23
2023-01-13T13:39:49.092Z,15.83
2023-01-13T13:43:19.441Z,15.50
2023-01-13T13:46:47.209Z,16.27
2023-01-13T13:49:54.719Z,16.48
2023-01-13T13:53:08.608Z,14.77
2023-01-13T13:56:24.972Z,15.07
2023-01-13T13:59:34.189Z,16.63
2023-01-13T14:02:37.952Z,23.40
2023-01-13T14:06:01.096Z,23.40
2023-01-13T14:09:04.412Z,23.52
2023-01-13T14:12:23.168Z,25.17
2023-01-13T14:15:31.767Z,21.43
2023-01-13T14:18:48.382Z,20.85
2023-01-13T14:21:51.262Z,17.52
2023-01-13T14:24:58.347Z,22.83
2023-01-13T14:28:14.283Z,25.47
2023-01-13T14:31:17.831Z,17.10
2023-01-13T14:34:31.329Z,22.90
2023-01-13T14:37:35.995Z,17.05
2023-01-13T14:40:44.655Z,24.60
2023-01-13T14:43:49.563Z,25.50
2023-01-13T14:46:55.420Z,17.20
2023-01-13T14:50:04.683Z,27.55
2023-01-13T14:53:29.639Z,25.55
2023-01-13T14:56:47.412Z,26.02
2023-01-13T15:00:16.111Z,22.40
2023-01-13T15:03:21.420Z,19.80
2023-01-13T15:06:26.479Z,30.25
2023-01-13T15:09:38.465Z,25.77
2023-01-13T15:12:43.535Z,25.23
2023-01-13T15:15:51.494Z,22.60
2023-01-13T15:18:56.012Z,23.03
2023-01-13T15:21:59.158Z,23.05
2023-01-13T15:25:01.963Z,21.48
2023-01-13T15:28:06.838Z,26.08
2023-01-13T15:31:09.874Z,24.43
2023-01-13T15:34:13.025Z,19.63
2023-01-13T15:37:17.286Z,23.95
2023-01-13T15:40:32.003Z,19.10
2023-01-13T15:43:53.466Z,23.33
2023-01-13T15:46:58.349Z,21.23
2023-01-13T15:50:01.117Z,19.00
2023-01-13T15:53:04.291Z,25.33
2023-01-13T15:56:23.528Z,22.40
2023-01-13T15:59:28.635Z,18.42
2023-01-13T16:02:31.471Z,22.83
2023-01-13T16:05:34.473Z,15.30
2023-01-13T16:08:37.296Z,22.42
2023-01-13T16:11:40.641Z,20.98
2023-01-13T16:14:43.531Z,24.85
2023-01-13T16:17:46.897Z,16.10
2023-01-13T16:20:53.074Z,28.83
2023-01-13T16:23:56.018Z,34.58
2023-01-13T16:26:58.935Z,33.33
2023-01-13T16:30:02.200Z,19.33
2023-01-13T16:33:05.091Z,20.13
2023-01-13T16:36:16.449Z,20.93
2023-01-13T16:39:22.110Z,19.50
2023-01-13T16:42:25.433Z,16.70
2023-01-13T16:45:28.424Z,20.30
2023-01-13T16:48:31.652Z,21.30
2023-01-13T16:51:34.430Z,21.77
2023-01-13T16:54:37.558Z,24.70
2023-01-13T16:57:40.420Z,24.27
2023-01-13T17:00:46.936Z,22.70
2023-01-13T17:03:50.096Z,17.50
2023-01-13T17:07:08.296Z,21.35
2023-01-13T17:10:18.369Z,16.73
2023-01-13T17:13:21.720Z,28.70
2023-01-13T17:16:26.449Z,17.60
2023-01-13T17:19:30.002Z,24.03
2023-01-13T17:22:32.750Z,21.40
2023-01-13T17:25:36.141Z,21.25
2023-01-13T17:28:39.204Z,13.05
2023-01-13T17:31:42.793Z,21.50
2023-01-13T17:34:45.901Z,14.93
2023-01-13T17:37:49.251Z,14.70
2023-01-13T17:40:51.981Z,18.42
2023-01-13T17:43:58.438Z,20.33
2023-01-13T17:47:01.538Z,18.42
2023-01-13T17:50:05.953Z,20.03
2023-01-13T17:53:08.852Z,15.93
2023-01-13T17:56:13.798Z,18.33
2023-01-13T17:59:18.633Z,19.87
2023-01-13T18:02:22.383Z,22.23
2023-01-13T18:05:25.728Z,23.07
2023-01-13T18:08:28.692Z,18.90
2023-01-13T18:11:32.294Z,24.00
2023-01-13T18:14:35.449Z,17.87
2023-01-13T18:17:40.872Z,15.85
2023-01-13T18:21:03.930Z,16.50
2023-01-13T18:24:31.198Z,17.55
2023-01-13T18:27:37.153Z,18.35
2023-01-13T18:30:40.357Z,23.83
2023-01-13T18:33:43.518Z,21.17
2023-01-13T18:36:47.640Z,20.53
2023-01-13T18:39:50.917Z,14.82
2023-01-13T18:42:55.191Z,16.45
2023-01-13T18:45:58.294Z,20.12
2023-01-13T18:49:01.766Z,17.27
2023-01-13T18:52:05.169Z,23.60
2023-01-13T18:55:09.155Z,20.70
2023-01-13T18:58:12.354Z,25.70
2023-01-13T19:01:15.606Z,19.80
2023-01-13T19:04:19.058Z,21.05
2023-01-13T19:07:24.929Z,17.97
2023-01-13T19:10:32.493Z,25.23
2023-01-13T19:13:36.283Z,22.27
2023-01-13T19:16:39.474Z,25.08
2023-01-13T19:19:45.201Z,24.23
2023-01-13T19:22:54.232Z,13.90
2023-01-13T19:26:07.982Z,22.08
2023-01-13T19:29:12.562Z,23.25
2023-01-13T19:32:16.829Z,31.52
2023-01-13T19:35:21.867Z,33.08
2023-01-13T19:38:26.927Z,29.93
2023-01-13T19:41:48.793Z,26.20
2023-01-13T19:45:11.967Z,25.50
2023-01-13T19:48:16.593Z,30.90
2023-01-13T19:51:20.108Z,29.73
2023-01-13T19:54:23.147Z,29.27
2023-01-13T19:57:27.907Z,32.75
2023-01-13T20:00:31.013Z,33.88
2023-01-13T20:03:37.810Z,32.40
2023-01-13T20:06:41.755Z,38.85
2023-01-13T20:09:45.828Z,35.20
2023-01-13T20:12:49.535Z,44.33
2023-01-13T20:15:53.711Z,89.35
2023-01-13T20:18:58.548Z,55.05
2023-01-13T20:22:02.948Z,37.72
2023-01-13T20:25:07.072Z,27.33
2023-01-13T20:28:10.618Z,34.42
2023-01-13T20:31:16.864Z,32.17
2023-01-13T20:34:23.200Z,33.25
2023-01-13T20:37:26.611Z,29.12
2023-01-13T20:40:30.574Z,21.97
2023-01-13T20:43:33.489Z,17.15
2023-01-13T20:46:37.786Z,25.85
2023-01-13T20:49:41.600Z,16.95
2023-01-13T20:52:45.376Z,25.73
2023-01-13T20:55:48.525Z,16.93
2023-01-13T20:58:53.482Z,26.67
2023-01-13T21:01:57.101Z,32.42
2023-01-13T21:05:01.970Z,35.20
2023-01-13T21:08:05.921Z,30.37
2023-01-13T21:11:11.537Z,30.43
2023-01-13T21:14:35.493Z,25.60
2023-01-13T21:17:57.494Z,36.63
2023-01-13T21:21:13.699Z,33.38
2023-01-13T21:24:16.906Z,32.17
2023-01-13T21:27:19.886Z,34.57
2023-01-13T21:30:23.371Z,37.63
2023-01-13T21:33:26.104Z,33.72
2023-01-13T21:36:29.273Z,34.05
2023-01-13T21:39:31.994Z,35.35
2023-01-13T21:42:53.938Z,35.33
2023-01-13T21:46:15.267Z,33.72
2023-01-13T21:49:18.421Z,40.67
2023-01-13T21:52:22.620Z,37.83
2023-01-13T21:55:29.897Z,31.23
2023-01-13T21:58:32.704Z,33.23
2023-01-13T22:01:35.997Z,40.33
2023-01-13T22:04:49.133Z,37.30
2023-01-13T22:07:53.268Z,39.13
2023-01-13T22:11:00.260Z,42.75
2023-01-13T22:14:07.037Z,41.00
2023-01-13T22:17:10.266Z,42.03
2023-01-13T22:20:13.847Z,73.60
2023-01-13T22:23:17.303Z,50.67
2023-01-13T22:26:20.086Z,45.63
2023-01-13T22:29:23.425Z,44.27
2023-01-13T22:32:26.324Z,43.85
2023-01-13T22:35:29.424Z,40.03
2023-01-13T22:38:33.710Z,43.67
2023-01-13T22:41:36.917Z,35.85
2023-01-13T22:44:39.860Z,37.13
2023-01-13T22:47:43.070Z,40.60
2023-01-13T22:50:45.856Z,35.38
2023-01-13T22:53:49.114Z,35.90
2023-01-13T22:56:52.025Z,36.35
2023-01-13T22:59:55.060Z,38.93
2023-01-13T23:02:58.050Z,47.25
2023-01-13T23:06:01.883Z,41.70
2023-01-13T23:09:04.991Z,47.90
2023-01-13T23:12:08.290Z,47.97
2023-01-13T23:15:11.626Z,37.50
2023-01-13T23:18:14.795Z,39.13
2023-01-13T23:21:39.402Z,42.30
2023-01-13T23:24:42.708Z,34.20
2023-01-13T23:27:45.640Z,43.10
2023-01-13T23:30:50.481Z,37.10
2023-01-13T23:33:53.374Z,41.28
2023-01-13T23:36:56.558Z,40.12
2023-01-13T23:39:59.255Z,40.83
2023-01-13T23:43:02.404Z,41.10
2023-01-13T23:46:13.083Z,36.20
2023-01-13T23:49:16.278Z,40.55
2023-01-13T23:52:19.080Z,36.58
2023-01-13T23:55:22.199Z,36.10
2023-01-13T23:58:24.952Z,42.00
